Time;durP1;ratioP1;P1;durP2;ratioP2;P2;SDS_P1;SDS_P2;PMS_P1;PMS_P2;Temp;Humidity;BMP_temperature;BMP_pressure;BME280_temperature;BME280_humidity;BME280_pressure;Samples;Min_cycle;Max_cycle;Signal;HPM_P1;HPM_P2
2022/12/03 00:01:02;;;;;;;24.23;13.88;;;;;;;1.25;85.94;102353.06;4808812;29;20039;-82
2022/12/03 00:03:28;;;;;;;25.17;14.35;;;;;;;1.26;86.09;102351.31;4808125;29;20041;-81
2022/12/03 00:05:53;;;;;;;26.52;16.17;;;;;;;1.25;85.88;102355.66;4808427;29;20191;-81
2022/12/03 00:08:19;;;;;;;26.33;14.52;;;;;;;1.25;86.14;102355.66;4808333;29;20435;-82
2022/12/03 00:10:44;;;;;;;26.20;14.00;;;;;;;1.25;86.12;102357.38;4793754;29;20043;-82
2022/12/03 00:13:10;;;;;;;24.73;14.27;;;;;;;1.26;86.07;102359.16;4808480;29;20042;-82
2022/12/03 00:15:35;;;;;;;25.90;14.07;;;;;;;1.26;85.75;102352.25;4822308;29;20105;-82
2022/12/03 00:18:01;;;;;;;24.40;14.30;;;;;;;1.27;85.88;102345.28;4824845;29;20054;-81
2022/12/03 00:20:26;;;;;;;25.83;13.77;;;;;;;1.26;86.49;102349.63;4824708;29;20050;-82
2022/12/03 00:22:52;;;;;;;26.67;15.02;;;;;;;1.27;85.99;102343.56;4825159;29;20050;-82
2022/12/03 00:25:17;;;;;;;26.23;15.52;;;;;;;1.27;86.23;102343.56;4824790;29;20022;-82
2022/12/03 00:27:42;;;;;;;25.40;14.57;;;;;;;1.28;86.48;102344.44;4817075;29;20402;-81
2022/12/03 00:30:09;;;;;;;29.40;14.55;;;;;;;1.27;85.53;102333.13;4819135;29;20046;-82
2022/12/03 00:32:34;;;;;;;26.55;14.05;;;;;;;1.27;86.50;102335.75;4824489;29;20062;-82
2022/12/03 00:35:00;;;;;;;23.42;14.23;;;;;;;1.26;85.97;102333.97;4824450;29;20443;-81
2022/12/03 00:37:26;;;;;;;28.45;15.52;;;;;;;1.25;86.06;102337.38;4824445;29;20102;-81
2022/12/03 00:39:51;;;;;;;26.98;15.55;;;;;;;1.27;86.52;102333.13;4826732;29;20046;-82
2022/12/03 00:42:19;;;;;;;29.08;14.30;;;;;;;1.26;86.74;102333.06;4822589;29;20041;-82
2022/12/03 00:44:44;;;;;;;28.77;15.80;;;;;;;1.28;86.54;102336.63;4815790;29;20053;-82
2022/12/03 00:47:10;;;;;;;26.00;15.93;;;;;;;1.29;86.53;102330.59;4805315;29;20058;-82
2022/12/03 00:49:35;;;;;;;27.02;15.30;;;;;;;1.27;86.48;102332.25;4822003;29;20046;-81
2022/12/03 00:52:01;;;;;;;25.60;15.15;;;;;;;1.27;85.90;102325.31;4821784;29;20551;-81
2022/12/03 00:54:26;;;;;;;25.67;15.27;;;;;;;1.27;86.64;102327.03;4805350;29;20509;-81
2022/12/03 00:56:52;;;;;;;25.80;15.02;;;;;;;1.31;85.93;102331.56;4824133;29;20042;-82
2022/12/03 00:59:17;;;;;;;28.35;15.52;;;;;;;1.30;86.59;102340.19;4824014;29;20026;-81
2022/12/03 01:01:42;;;;;;;27.35;15.02;;;;;;;1.29;86.71;102330.59;4812309;29;20042;-81
2022/12/03 01:04:08;;;;;;;27.25;15.13;;;;;;;1.29;86.09;102336.69;4830440;29;20246;-82
2022/12/03 01:06:33;;;;;;;31.23;17.02;;;;;;;1.28;85.70;102329.69;4824716;29;20141;-81
2022/12/03 01:08:59;;;;;;;28.02;15.30;;;;;;;1.29;86.02;102328.88;4827264;29;20055;-82
2022/12/03 01:11:36;;;;;;;29.20;15.57;;;;;;;1.28;85.88;102326.19;4807016;29;20050;-81
2022/12/03 01:14:07;;;;;;;29.92;16.95;;;;;;;1.29;86.77;102322.75;4813977;29;20049;-82
2022/12/03 01:16:33;;;;;;;28.83;16.33;;;;;;;1.31;86.90;102334.16;4826819;29;20423;-81
2022/12/03 01:18:59;;;;;;;26.58;15.00;;;;;;;1.32;86.52;102328.09;4811492;29;20042;-81
2022/12/03 01:21:24;;;;;;;31.17;15.85;;;;;;;1.32;86.27;102330.72;4829970;29;20061;-82
2022/12/03 01:23:49;;;;;;;30.88;15.40;;;;;;;1.31;86.07;102328.94;4815002;29;20070;-81
2022/12/03 01:26:15;;;;;;;27.08;15.10;;;;;;;1.31;86.35;102323.72;4826331;29;20058;-81
2022/12/03 01:28:40;;;;;;;27.73;16.48;;;;;;;1.28;86.87;102327.06;4816495;29;20026;-82
2022/12/03 01:33:51;;;;;;;29.65;15.48;;;;;;;1.31;86.27;102328.94;4827713;29;20046;-81
2022/12/03 01:36:16;;;;;;;27.90;14.85;;;;;;;1.31;86.64;102322.81;4832568;29;20034;-81
2022/12/03 01:38:42;;;;;;;30.10;17.05;;;;;;;1.33;86.00;102331.59;4829846;29;20144;-81
2022/12/03 01:41:08;;;;;;;34.10;17.55;;;;;;;1.31;86.65;102326.34;4818569;29;20201;-82
2022/12/03 01:43:34;;;;;;;30.75;16.42;;;;;;;1.33;86.68;102326.38;4830623;29;20042;-82
2022/12/03 01:45:59;;;;;;;34.40;16.55;;;;;;;1.33;86.47;102316.81;4835495;29;20030;-81
2022/12/03 01:48:25;;;;;;;29.08;16.75;;;;;;;1.33;86.23;102316.81;4826065;29;20333;-81
2022/12/03 01:50:51;;;;;;;29.92;16.00;;;;;;;1.32;86.88;102309.81;4832275;29;20069;-82
2022/12/03 01:53:17;;;;;;;28.52;15.85;;;;;;;1.34;85.86;102316.00;4828439;29;20042;-81
2022/12/03 01:55:44;;;;;;;28.98;16.15;;;;;;;1.33;86.11;102314.22;4825563;29;20408;-82
2022/12/03 01:58:12;;;;;;;31.67;17.45;;;;;;;1.32;86.76;102312.44;4828611;29;20552;-81
2022/12/03 02:00:39;;;;;;;28.52;15.43;;;;;;;1.32;86.77;102312.44;4824690;29;20130;-81
2022/12/03 02:03:15;;;;;;;27.63;16.17;;;;;;;1.33;86.84;102305.50;4834152;29;20079;-81
2022/12/03 02:05:40;;;;;;;29.45;16.95;;;;;;;1.34;86.77;102315.13;4829760;29;20474;-81
2022/12/03 02:08:35;;;;;;;29.40;16.38;;;;;;;1.35;86.37;102304.72;4824844;29;20062;-81
2022/12/03 02:11:04;;;;;;;30.63;16.10;;;;;;;1.35;86.57;102309.94;4827488;29;20062;-81
2022/12/03 02:13:30;;;;;;;26.75;15.43;;;;;;;1.35;86.69;102312.56;4827449;29;20041;-82
2022/12/03 02:15:57;;;;;;;30.00;16.63;;;;;;;1.35;86.36;102309.94;4827369;29;20030;-81
2022/12/03 02:18:22;;;;;;;33.70;16.88;;;;;;;1.33;86.19;102315.94;4806246;29;20120;-82
2022/12/03 02:21:12;;;;;;;29.30;16.42;;;;;;;1.33;87.03;102313.31;4826157;29;20046;-81
2022/12/03 02:24:23;;;;;;;30.50;17.02;;;;;;;1.34;86.84;102309.91;4822061;29;20035;-81
2022/12/03 02:26:48;;;;;;;32.15;16.95;;;;;;;1.34;87.00;102309.91;4776995;29;20129;-81
2022/12/03 02:29:14;;;;;;;29.58;15.85;;;;;;;1.35;86.75;102315.16;4824678;29;20136;-82
2022/12/03 02:31:41;;;;;;;31.08;16.70;;;;;;;1.33;86.96;102301.16;4813356;29;20094;-82
2022/12/03 02:34:07;;;;;;;36.58;18.20;;;;;;;1.33;86.62;102301.16;4811196;29;20153;-81
2022/12/03 02:36:36;;;;;;;32.58;17.83;;;;;;;1.33;86.28;102301.16;4829387;29;20125;-82
2022/12/03 02:39:04;;;;;;;29.38;16.02;;;;;;;1.33;86.50;102302.88;4830553;29;20034;-82
2022/12/03 02:44:13;;;;;;;31.13;16.73;;;;;;;1.34;86.49;102304.69;4807238;29;20042;-82
2022/12/03 02:46:39;;;;;;;30.27;17.38;;;;;;;1.34;86.40;102299.47;4826759;29;20410;-81
2022/12/03 02:49:05;;;;;;;30.55;16.45;;;;;;;1.31;86.59;102295.00;4811880;29;20042;-82
2022/12/03 02:51:33;;;;;;;33.78;17.17;;;;;;;1.32;86.35;102295.91;4828329;29;20057;-82
2022/12/03 02:53:59;;;;;;;30.27;16.98;;;;;;;1.32;86.60;102296.78;4828032;29;20034;-81
2022/12/03 02:56:28;;;;;;;34.03;18.20;;;;;;;1.31;86.78;102287.19;4834301;29;20043;-81
2022/12/03 02:59:00;;;;;;;32.97;16.00;;;;;;;1.32;87.02;102295.91;4838765;29;20051;-81
2022/12/03 03:01:26;;;;;;;29.52;16.75;;;;;;;1.34;86.67;102291.63;4832244;29;20042;-81
2022/12/03 03:03:52;;;;;;;32.75;16.98;;;;;;;1.35;86.91;102296.00;4816125;29;20106;-81
2022/12/03 03:06:19;;;;;;;34.65;18.65;;;;;;;1.33;86.95;102289.84;4831091;29;20034;-81
2022/12/03 03:08:45;;;;;;;32.65;18.60;;;;;;;1.35;86.99;102296.00;4833632;29;20062;-81
2022/12/03 03:11:10;;;;;;;32.65;17.50;;;;;;;1.35;86.89;102293.41;4828423;29;20094;-81
2022/12/03 03:13:37;;;;;;;30.27;16.33;;;;;;;1.36;86.50;102285.63;4824740;29;20050;-81
2022/12/03 03:16:04;;;;;;;34.83;18.58;;;;;;;1.36;86.89;102289.94;4827876;29;20129;-81
2022/12/03 03:18:30;;;;;;;31.48;17.58;;;;;;;1.36;86.85;102279.50;4830586;29;20029;-81
2022/12/03 03:20:56;;;;;;;33.75;17.45;;;;;;;1.37;86.67;102281.31;4827281;29;20043;-81
2022/12/03 03:23:22;;;;;;;31.50;18.38;;;;;;;1.36;87.20;102279.50;4835500;29;20041;-81
2022/12/03 03:26:10;;;;;;;30.33;17.70;;;;;;;1.37;87.38;102279.56;4818098;29;20476;-82
2022/12/03 03:28:42;;;;;;;30.98;18.02;;;;;;;1.36;86.61;102282.13;4810793;29;20039;-81
2022/12/03 03:31:11;;;;;;;30.88;18.58;;;;;;;1.33;86.96;102272.44;4836463;29;20124;-81
2022/12/03 03:33:39;;;;;;;35.42;18.65;;;;;;;1.34;86.57;102275.97;4824105;29;20499;-81
2022/12/03 03:36:05;;;;;;;33.65;18.30;;;;;;;1.33;87.38;102280.28;4823474;29;20053;-81
2022/12/03 03:38:31;;;;;;;35.10;18.95;;;;;;;1.33;87.02;102269.84;4832473;29;20064;-74
2022/12/03 03:40:59;;;;;;;33.45;18.70;;;;;;;1.35;86.63;102267.28;4838413;29;20031;-74
2022/12/03 03:43:25;;;;;;;34.30;18.88;;;;;;;1.33;86.69;102266.34;4824277;29;20030;-74
2022/12/03 03:45:52;;;;;;;34.00;18.73;;;;;;;1.33;87.28;102274.19;4840165;29;20410;-74
2022/12/03 03:48:19;;;;;;;31.90;17.40;;;;;;;1.33;86.71;102262.00;4812941;29;20038;-81
2022/12/03 03:50:45;;;;;;;32.22;19.05;;;;;;;1.32;86.78;102265.47;4821700;29;20075;-81
2022/12/03 03:53:11;;;;;;;31.35;18.38;;;;;;;1.32;86.72;102260.25;4811499;29;20038;-81
2022/12/03 03:55:38;;;;;;;37.70;19.30;;;;;;;1.31;86.88;102265.38;4832898;29;20436;-81
2022/12/03 03:58:03;;;;;;;33.45;19.30;;;;;;;1.31;86.70;102263.69;4803771;29;20038;-81
2022/12/03 04:00:30;;;;;;;31.98;17.95;;;;;;;1.28;87.13;102264.44;4812668;29;20364;-80
2022/12/03 04:02:55;;;;;;;36.15;19.73;;;;;;;1.29;86.92;102258.41;4813305;29;20038;-81
2022/12/03 04:05:22;;;;;;;35.38;19.33;;;;;;;1.28;86.51;102260.94;4799626;29;20050;-82
2022/12/03 04:07:48;;;;;;;32.35;18.50;;;;;;;1.29;86.72;102263.63;4830303;29;20102;-81
2022/12/03 04:12:59;;;;;;;34.13;18.20;;;;;;;1.34;86.97;102255.09;4830433;29;20154;-81
2022/12/03 04:15:25;;;;;;;32.38;18.27;;;;;;;1.34;87.45;102260.31;4820379;29;20464;-81
2022/12/03 04:20:36;;;;;;;34.97;19.08;;;;;;;1.32;86.49;102259.34;4826675;29;20037;-81
2022/12/03 04:23:02;;;;;;;34.85;17.65;;;;;;;1.31;87.16;102258.47;4825859;29;20035;-81
2022/12/03 04:30:58;;;;;;;31.23;18.35;;;;;;;1.28;86.91;102253.09;4816976;29;20090;-81
2022/12/03 04:36:07;;;;;;;34.42;19.00;;;;;;;1.30;87.04;102246.22;4828593;29;20121;-81
2022/12/03 04:38:33;;;;;;;31.35;18.02;;;;;;;1.33;87.70;102255.91;4829055;29;20384;-81
2022/12/03 04:41:05;;;;;;;35.17;19.30;;;;;;;1.32;87.18;102249.81;4830798;29;20041;-81
2022/12/03 04:43:33;;;;;;;36.60;18.50;;;;;;;1.30;86.81;102251.47;4830493;29;20073;-81
2022/12/03 04:46:00;;;;;;;31.88;18.00;;;;;;;1.29;86.76;102247.09;4820813;29;20038;-81
2022/12/03 04:48:25;;;;;;;35.97;19.95;;;;;;;1.29;87.31;102247.09;4811135;29;20535;-81
2022/12/03 04:50:51;;;;;;;34.35;18.60;;;;;;;1.28;87.11;102240.94;4833267;29;20102;-81
2022/12/03 04:53:17;;;;;;;33.20;19.67;;;;;;;1.29;87.34;102242.75;4831317;29;20042;-81
2022/12/03 04:55:42;;;;;;;35.78;19.40;;;;;;;1.30;87.22;102241.00;4836027;29;20132;-82
2022/12/03 04:58:08;;;;;;;35.63;19.90;;;;;;;1.29;87.28;102236.63;4825952;29;20050;-81
2022/12/03 05:00:34;;;;;;;33.28;18.30;;;;;;;1.35;87.57;102239.47;4827184;29;20086;-81
2022/12/03 05:02:59;;;;;;;35.70;19.13;;;;;;;1.28;87.14;102238.34;4826036;29;20041;-82
2022/12/03 05:05:25;;;;;;;34.95;17.95;;;;;;;1.28;87.77;102234.84;4807860;29;20034;-80
2022/12/03 05:07:50;;;;;;;36.30;19.75;;;;;;;1.29;87.36;102232.31;4806800;29;20143;-81
2022/12/03 05:10:16;;;;;;;31.48;17.75;;;;;;;1.30;87.74;102235.78;4823477;29;20390;-81
2022/12/03 05:12:41;;;;;;;33.03;19.52;;;;;;;1.28;87.53;102240.94;4823606;29;20410;-81
2022/12/03 05:15:07;;;;;;;39.88;19.38;;;;;;;1.27;88.04;102240.91;4814304;29;20054;-81
2022/12/03 05:17:32;;;;;;;30.95;17.40;;;;;;;1.25;87.56;102243.44;4823235;29;20037;-81
2022/12/03 05:22:42;;;;;;;37.92;20.45;;;;;;;1.22;87.58;102240.72;4806658;29;20372;-81
2022/12/03 05:25:08;;;;;;;34.55;20.38;;;;;;;1.24;88.21;102241.69;4822992;29;20057;-81
2022/12/03 05:27:33;;;;;;;34.20;18.73;;;;;;;1.24;88.69;102233.84;4823195;29;20045;-81
2022/12/03 05:29:59;;;;;;;34.78;19.13;;;;;;;1.24;88.54;102233.84;4823623;29;20034;-81
2022/12/03 05:32:25;;;;;;;38.15;20.48;;;;;;;1.24;88.31;102232.97;4809270;29;20050;-82
2022/12/03 05:34:50;;;;;;;34.55;19.05;;;;;;;1.25;88.13;102221.69;4823031;29;20050;-81
2022/12/03 05:37:15;;;;;;;37.88;19.40;;;;;;;1.24;87.97;102225.13;4806415;29;20026;-81
2022/12/03 05:39:41;;;;;;;34.70;18.48;;;;;;;1.22;88.39;102225.06;4812946;29;20477;-81
2022/12/03 05:44:52;;;;;;;35.05;19.45;;;;;;;1.24;88.18;102217.31;4814177;29;20046;-81
2022/12/03 05:47:17;;;;;;;31.75;18.00;;;;;;;1.24;88.56;102227.75;4807543;29;20471;-81
2022/12/03 05:49:43;;;;;;;35.83;19.88;;;;;;;1.21;88.72;102210.25;4833825;29;20050;-81
2022/12/03 05:52:08;;;;;;;36.95;19.67;;;;;;;1.21;89.01;102207.66;4833676;29;20033;-81
2022/12/03 05:54:34;;;;;;;35.92;19.55;;;;;;;1.21;88.61;102207.66;4835383;29;20423;-81
2022/12/03 05:56:59;;;;;;;38.63;20.15;;;;;;;1.24;88.71;102209.47;4832065;29;20126;-81
2022/12/03 05:59:24;;;;;;;36.72;18.17;;;;;;;1.23;88.78;102208.56;4830829;29;20466;-81
2022/12/03 06:01:50;;;;;;;34.55;19.27;;;;;;;1.25;88.53;102216.47;4829967;29;20027;-81
2022/12/03 06:04:15;;;;;;;36.75;19.17;;;;;;;1.25;88.50;102219.06;4811248;29;20047;-81
2022/12/03 06:06:41;;;;;;;38.42;20.08;;;;;;;1.25;88.36;102224.28;4826364;29;20046;-81
2022/12/03 06:09:06;;;;;;;39.80;22.67;;;;;;;1.24;88.53;102215.59;4827092;29;20066;-81
2022/12/03 06:11:33;;;;;;;37.80;19.75;;;;;;;1.25;88.97;102219.06;4837336;29;20066;-81
2022/12/03 06:14:00;;;;;;;35.60;19.33;;;;;;;1.24;88.94;102212.97;4830576;29;20146;-81
2022/12/03 06:16:25;;;;;;;35.17;19.63;;;;;;;1.22;88.51;102218.97;4815285;29;20053;-81
2022/12/03 06:18:51;;;;;;;33.58;19.25;;;;;;;1.21;88.92;102223.31;4825311;29;20125;-81
2022/12/03 06:21:16;;;;;;;35.67;17.75;;;;;;;1.21;88.94;102211.94;4807206;29;20048;-81
2022/12/03 06:23:43;;;;;;;36.35;18.92;;;;;;;1.21;89.00;102220.69;4827245;29;20046;-81
2022/12/03 06:26:13;;;;;;;39.45;20.02;;;;;;;1.20;88.94;102220.63;4834012;29;20030;-81
2022/12/03 06:28:38;;;;;;;36.10;19.45;;;;;;;1.19;88.52;102222.34;4810395;29;20049;-82
2022/12/03 06:31:04;;;;;;;36.00;19.13;;;;;;;1.20;89.11;102220.63;4816216;29;20050;-81
2022/12/03 06:33:29;;;;;;;37.42;19.95;;;;;;;1.21;88.77;102217.16;4798538;29;20034;-81
2022/12/03 06:35:55;;;;;;;33.47;18.10;;;;;;;1.22;88.89;102218.97;4805132;29;20050;-81
2022/12/03 06:38:21;;;;;;;37.28;19.48;;;;;;;1.22;88.47;102212.03;4821767;29;20136;-81
2022/12/03 06:40:47;;;;;;;34.92;19.08;;;;;;;1.19;89.04;102218.84;4827903;29;20050;-81
2022/12/03 06:43:13;;;;;;;35.22;18.90;;;;;;;1.18;88.94;102217.94;4821675;29;20081;-81
2022/12/03 06:45:38;;;;;;;36.83;19.40;;;;;;;1.18;89.60;102215.34;4826915;29;20022;-82
2022/12/03 06:48:04;;;;;;;36.15;18.42;;;;;;;1.20;89.36;102211.06;4788014;29;20117;-81
2022/12/03 06:50:29;;;;;;;34.10;18.40;;;;;;;1.21;89.33;102205.03;4806637;29;20364;-81
2022/12/03 06:52:55;;;;;;;33.58;17.02;;;;;;;1.21;89.01;102206.72;4828640;29;20045;-81
2022/12/03 06:55:20;;;;;;;34.88;18.83;;;;;;;1.22;88.72;102213.75;4825861;29;20046;-81
2022/12/03 06:57:46;;;;;;;35.78;18.73;;;;;;;1.21;88.84;102209.34;4824777;29;20038;-81
2022/12/03 07:00:12;;;;;;;37.90;18.85;;;;;;;1.22;89.20;102212.03;4775446;29;20389;-81
2022/12/03 07:02:38;;;;;;;35.80;17.42;;;;;;;1.22;89.18;102201.59;4830391;29;20042;-81
2022/12/03 07:05:03;;;;;;;35.63;19.02;;;;;;;1.22;88.94;102201.59;4823752;29;20027;-81
2022/12/03 07:07:30;;;;;;;36.92;19.80;;;;;;;1.20;88.96;102205.84;4829630;29;20046;-81
2022/12/03 07:09:55;;;;;;;39.88;17.75;;;;;;;1.21;88.22;102201.50;4827911;29;20057;-82
2022/12/03 07:12:21;;;;;;;42.40;19.15;;;;;;;1.19;88.32;102206.69;4823504;29;20526;-81
2022/12/03 07:14:46;;;;;;;30.63;16.80;;;;;;;1.16;89.01;102209.16;4791963;29;20038;-81
2022/12/03 07:17:12;;;;;;;39.38;19.00;;;;;;;1.15;88.63;102204.78;4826103;29;20031;-81
2022/12/03 07:19:37;;;;;;;35.97;18.95;;;;;;;1.14;89.24;102207.31;4828135;29;20107;-81
2022/12/03 07:22:03;;;;;;;34.75;17.35;;;;;;;1.15;89.07;102203.91;4824517;29;20148;-82
2022/12/03 07:24:28;;;;;;;33.60;18.38;;;;;;;1.16;89.44;102206.53;4828613;29;20122;-82
2022/12/03 07:26:54;;;;;;;37.30;18.52;;;;;;;1.17;89.19;102210.06;4817044;29;20065;-81
2022/12/03 07:29:20;;;;;;;32.15;16.88;;;;;;;1.17;88.66;102199.63;4807147;29;20121;-82
2022/12/03 07:31:45;;;;;;;36.45;16.77;;;;;;;1.15;88.82;102204.78;4809197;29;20133;-82
2022/12/03 07:34:11;;;;;;;31.92;17.88;;;;;;;1.16;88.22;102208.28;4823228;29;20492;-81
2022/12/03 07:36:38;;;;;;;32.85;17.75;;;;;;;1.16;88.92;102208.28;4829754;29;20128;-81
2022/12/03 07:39:04;;;;;;;34.55;16.08;;;;;;;1.15;89.05;102217.81;4826648;29;20042;-81
2022/12/03 07:41:29;;;;;;;30.50;16.13;;;;;;;1.15;89.16;102212.59;4834828;29;20049;-82
2022/12/03 07:43:55;;;;;;;35.47;18.40;;;;;;;1.16;88.95;102208.28;4833611;29;20034;-81
2022/12/03 07:46:20;;;;;;;33.63;17.20;;;;;;;1.19;88.43;102211.03;4809378;29;20309;-81
2022/12/03 07:48:46;;;;;;;31.55;17.20;;;;;;;1.20;88.51;102212.78;4823639;29;20057;-82
2022/12/03 07:51:11;;;;;;;30.70;16.67;;;;;;;1.19;87.92;102209.31;4810518;29;20034;-82
2022/12/03 07:53:36;;;;;;;30.98;16.55;;;;;;;1.17;88.11;102203.13;4830378;29;20056;-82
2022/12/03 07:56:03;;;;;;;30.10;15.43;;;;;;;1.19;88.16;102214.53;4824661;29;20057;-81
2022/12/03 07:58:29;;;;;;;32.25;16.98;;;;;;;1.17;88.22;102208.34;4823580;29;20197;-81
2022/12/03 08:00:54;;;;;;;33.78;16.85;;;;;;;1.19;87.66;102211.03;4815032;29;20570;-82
2022/12/03 08:03:20;;;;;;;33.45;17.05;;;;;;;1.19;88.29;102206.69;4820625;29;20038;-82
2022/12/03 08:05:45;;;;;;;33.08;17.13;;;;;;;1.20;88.09;102216.28;4834879;29;20062;-81
2022/12/03 08:08:11;;;;;;;32.47;17.13;;;;;;;1.21;87.51;102218.09;4276707;29;15060557;-81
2022/12/03 08:10:36;;;;;;;33.38;16.77;;;;;;;1.20;87.74;102207.56;4826464;29;20132;-81
2022/12/03 08:13:05;;;;;;;33.58;17.92;;;;;;;1.19;88.31;102211.91;4827159;29;20034;-82
2022/12/03 08:15:31;;;;;;;32.85;16.88;;;;;;;1.23;87.77;102218.13;4823535;29;20134;-81
2022/12/03 08:17:59;;;;;;;32.28;17.02;;;;;;;1.23;88.20;102220.72;4826798;29;20520;-81
2022/12/03 08:20:33;;;;;;;34.70;17.15;;;;;;;1.23;88.84;102219.00;4793124;29;20046;-82
2022/12/03 08:23:05;;;;;;;34.72;17.13;;;;;;;1.24;87.94;102215.59;4828873;29;20502;-82
2022/12/03 08:25:31;;;;;;;29.02;16.90;;;;;;;1.23;88.04;102210.28;4828308;29;20072;-81
2022/12/03 08:28:21;;;;;;;38.75;17.33;;;;;;;1.26;88.32;102213.94;4823497;29;20513;-82
2022/12/03 08:31:22;;;;;;;33.65;15.27;;;;;;;1.27;88.55;102220.03;4819888;29;20508;-82
2022/12/03 08:33:50;;;;;;;37.70;17.40;;;;;;;1.27;88.56;102223.53;4822504;29;20141;-81
2022/12/03 08:36:28;;;;;;;33.55;17.20;;;;;;;1.27;88.49;102212.19;4825793;29;20038;-81
2022/12/03 08:39:16;;;;;;;36.33;17.50;;;;;;;1.27;88.58;102220.91;4830738;29;20072;-82
2022/12/03 08:44:28;;;;;;;34.35;16.55;;;;;;;1.25;88.53;102213.84;4814629;29;20042;-82
2022/12/03 08:47:19;;;;;;;36.28;17.45;;;;;;;1.27;89.12;102212.19;4830689;29;20032;-82
2022/12/03 08:49:58;;;;;;;41.17;18.37;;;;;;;1.25;88.96;102212.13;4810863;29;20084;-81
2022/12/03 08:52:32;;;;;;;38.35;19.00;;;;;;;1.27;88.93;102213.09;4828019;29;20074;-81
2022/12/03 08:55:01;;;;;;;41.45;18.42;;;;;;;1.27;88.30;102215.69;4813784;29;20034;-81
2022/12/03 08:57:29;;;;;;;30.00;16.13;;;;;;;1.25;88.90;102204.31;4825807;29;20090;-81
2022/12/03 08:59:58;;;;;;;34.85;16.17;;;;;;;1.28;89.69;102203.53;4833074;29;20113;-82
2022/12/03 09:02:31;;;;;;;37.95;17.38;;;;;;;1.28;89.32;102209.63;4814728;29;20616;-80
2022/12/03 09:04:58;;;;;;;40.10;19.35;;;;;;;1.28;89.20;102203.53;4839486;29;20034;-79
2022/12/03 09:07:23;;;;;;;45.90;18.55;;;;;;;1.29;89.19;102205.31;4819422;29;20098;-79
2022/12/03 09:09:48;;;;;;;35.47;17.15;;;;;;;1.29;88.91;102203.59;4836273;29;20046;-80
2022/12/03 09:12:14;;;;;;;36.03;17.10;;;;;;;1.31;88.88;102206.28;4831981;29;20060;-80
2022/12/03 09:14:39;;;;;;;37.95;17.15;;;;;;;1.29;88.89;102203.59;4812493;29;20570;-80
2022/12/03 09:17:05;;;;;;;38.38;17.58;;;;;;;1.32;88.44;102215.00;4802467;29;20050;-80
2022/12/03 09:19:30;;;;;;;38.67;18.38;;;;;;;1.29;88.45;102214.03;4822548;29;20050;-80
2022/12/03 09:21:56;;;;;;;33.05;16.05;;;;;;;1.32;88.05;102215.00;4805970;29;20113;-80
2022/12/03 09:24:21;;;;;;;37.58;15.73;;;;;;;1.31;88.08;102206.28;4806138;29;20121;-80
2022/12/03 09:26:47;;;;;;;38.83;18.17;;;;;;;1.34;87.68;102214.22;4822506;29;20125;-80
2022/12/03 09:29:13;;;;;;;40.75;17.73;;;;;;;1.31;87.42;102214.09;4805929;29;20042;-80
2022/12/03 09:31:39;;;;;;;41.10;19.20;;;;;;;1.29;88.09;102206.22;4822341;29;20105;-75
2022/12/03 09:34:05;;;;;;;42.95;20.17;;;;;;;1.27;87.72;102201.75;4801476;29;20182;-75
2022/12/03 09:36:30;;;;;;;39.55;18.73;;;;;;;1.27;87.46;102209.59;4822084;29;20049;-75
2022/12/03 09:38:56;;;;;;;40.33;20.08;;;;;;;1.24;87.27;102210.38;4805645;29;20046;-75
2022/12/03 09:41:22;;;;;;;41.45;19.48;;;;;;;1.25;87.32;102206.03;4805679;29;20030;-75
2022/12/03 09:43:48;;;;;;;39.58;20.35;;;;;;;1.26;87.27;102206.09;4805776;29;20034;-75
2022/12/03 09:46:15;;;;;;;42.78;19.75;;;;;;;1.28;87.35;102201.78;4824541;29;20042;-75
2022/12/03 09:48:40;;;;;;;46.95;21.60;;;;;;;1.29;87.57;102203.59;4824006;29;20048;-75
2022/12/03 09:51:08;;;;;;;41.22;19.23;;;;;;;1.31;87.40;102201.06;4805511;29;20376;-75
2022/12/03 09:53:33;;;;;;;39.78;18.98;;;;;;;1.31;87.20;102185.41;4828239;29;20045;-75
2022/12/03 09:56:00;;;;;;;41.25;19.95;;;;;;;1.33;87.75;102198.47;4809678;29;20096;-75
2022/12/03 09:58:27;;;;;;;42.58;19.88;;;;;;;1.31;87.43;102190.63;4833775;29;20391;-74
2022/12/03 10:00:53;;;;;;;42.05;19.95;;;;;;;1.33;88.05;102183.72;4822234;29;20138;-74
2022/12/03 10:03:22;;;;;;;41.75;19.33;;;;;;;1.33;87.09;102182.81;4822397;29;20202;-74
2022/12/03 10:05:48;;;;;;;42.60;19.13;;;;;;;1.33;87.04;102190.66;4822405;29;20022;-74
2022/12/03 10:08:19;;;;;;;51.30;20.17;;;;;;;1.28;86.82;102185.25;4802779;29;20416;-75
2022/12/03 10:10:46;;;;;;;;;;;;;;;1.34;87.62;102190.72;4806682;29;20502;-74
2022/12/03 10:13:20;;;;;;;42.38;19.60;;;;;;;1.32;87.07;102186.28;4802834;29;20517;-75
2022/12/03 10:15:47;;;;;;;36.58;18.27;;;;;;;1.27;87.26;102173.94;4802754;29;20038;-74
2022/12/03 10:18:20;;;;;;;44.35;20.50;;;;;;;1.26;87.10;102174.78;4806931;29;20042;-75
2022/12/03 10:20:47;;;;;;;47.45;20.05;;;;;;;1.25;87.29;102170.38;4804961;29;20035;-75
2022/12/03 10:23:24;;;;;;;41.92;19.98;;;;;;;1.31;87.03;102179.25;4809661;29;20135;-75
2022/12/03 10:25:56;;;;;;;45.35;20.63;;;;;;;1.25;86.58;102172.09;4815808;29;20046;-75
2022/12/03 10:28:35;;;;;;;46.35;19.92;;;;;;;1.22;86.72;102167.66;4816116;29;21388;-75
2022/12/03 10:31:07;;;;;;;47.50;19.98;;;;;;;1.23;86.51;102164.19;4806212;29;20043;-75
2022/12/03 10:33:38;;;;;;;45.78;20.50;;;;;;;1.24;86.86;102165.13;4817104;29;20046;-75
2022/12/03 10:36:12;;;;;;;45.00;20.17;;;;;;;1.23;87.14;102163.31;4816516;29;20066;-75
2022/12/03 10:38:38;;;;;;;42.42;20.02;;;;;;;1.22;86.76;102148.50;4816890;29;20045;-75
2022/12/03 10:41:19;;;;;;;44.28;20.00;;;;;;;1.24;87.28;102152.06;4816576;29;20034;-75
2022/12/03 10:43:44;;;;;;;;;;;;;;;1.26;87.00;102151.28;4816727;29;20065;-75
2022/12/03 10:46:14;;;;;;;44.75;18.98;;;;;;;1.23;87.28;102145.94;4815906;29;19922;-75
2022/12/03 10:48:40;;;;;;;43.90;20.13;;;;;;;1.23;87.77;102139.84;4814557;29;20039;-75
2022/12/03 10:51:17;;;;;;;45.10;19.63;;;;;;;1.23;86.95;102139.84;4820797;29;20054;-75
2022/12/03 10:53:42;;;;;;;42.75;18.85;;;;;;;1.19;86.05;102144.06;4817675;29;20049;-75
2022/12/03 10:56:16;;;;;;;36.97;18.40;;;;;;;1.15;86.42;102136.06;4821620;29;20042;-75
2022/12/03 10:58:42;;;;;;;38.03;16.45;;;;;;;1.11;85.94;102136.78;4817265;29;20073;-75
2022/12/03 11:01:19;;;;;;;36.78;16.35;;;;;;;1.08;85.97;102128.00;4805715;29;20453;-75
2022/12/03 11:03:45;;;;;;;34.65;15.95;;;;;;;1.07;85.71;102121.00;4806996;29;20038;-75
2022/12/03 11:06:18;;;;;;;34.67;15.93;;;;;;;1.07;85.11;102125.34;4814269;29;20042;-75
2022/12/03 11:08:47;;;;;;;32.05;16.13;;;;;;;1.08;85.50;102119.28;4833437;29;20065;-75
2022/12/03 11:11:17;;;;;;;33.75;15.38;;;;;;;1.08;85.12;102112.34;4831316;29;20042;-75
2022/12/03 11:13:49;;;;;;;31.65;13.73;;;;;;;1.10;85.18;102119.34;4819441;29;20478;-75
2022/12/03 11:16:37;;;;;;;23.80;11.88;;;;;;;1.11;84.45;102116.78;4824088;29;20062;-75
2022/12/03 11:19:04;;;;;;;26.85;14.00;;;;;;;1.11;84.91;102124.59;4808201;29;20045;-75
2022/12/03 11:21:30;;;;;;;29.17;14.43;;;;;;;1.13;85.23;102117.72;4808225;29;20034;-75
2022/12/03 11:23:58;;;;;;;26.38;14.15;;;;;;;1.16;84.42;102116.94;4824606;29;20042;-75
2022/12/03 11:26:26;;;;;;;24.63;13.32;;;;;;;1.21;83.75;102110.19;4823387;29;20076;-75
2022/12/03 11:28:53;;;;;;;28.05;14.30;;;;;;;1.19;83.44;102109.25;4819798;29;20129;-75
2022/12/03 11:31:40;;;;;;;21.40;11.45;;;;;;;1.19;83.70;102101.44;4806006;29;20125;-75
2022/12/03 11:34:21;;;;;;;21.58;12.05;;;;;;;1.17;82.06;102106.59;4821953;29;20099;-76
2022/12/03 11:37:08;;;;;;;24.38;13.88;;;;;;;1.15;83.33;102094.31;4817864;29;20148;-75
2022/12/03 11:39:58;;;;;;;25.63;13.60;;;;;;;1.17;83.33;102101.38;4817090;29;20368;-75
2022/12/03 11:42:26;;;;;;;28.73;14.60;;;;;;;1.17;82.06;102100.47;4799468;29;20102;-75
2022/12/03 11:45:10;;;;;;;26.50;13.80;;;;;;;1.16;82.39;102088.25;4823722;29;20121;-75
2022/12/03 11:47:45;;;;;;;24.40;13.95;;;;;;;1.16;82.52;102085.63;4818856;29;20038;-75